Time;durP1;ratioP1;P1;durP2;ratioP2;P2;SDS_P1;SDS_P2;PMS_P1;PMS_P2;Temp;Humidity;BMP_temperature;BMP_pressure;BME280_temperature;BME280_humidity;BME280_pressure;Samples;Min_cycle;Max_cycle;Signal;HPM_P1;HPM_P2
2022/11/24 06:57:09;;;;;;;10.90;2.83;;;;;;;;;;10582731;27;20196;-82
2022/11/24 07:02:10;;;;;;;11.73;2.83;;;;;;;;;;10568600;28;20051;-85
2022/11/24 07:07:11;;;;;;;5.88;1.67;;;;;;;;;;10549877;28;20081;-86
2022/11/24 07:12:12;;;;;;;9.10;3.00;;;;;;;;;;10546818;28;20104;-86
2022/11/24 07:17:14;;;;;;;8.38;1.95;;;;;;;;;;10549777;28;20075;-86
2022/11/24 07:22:15;;;;;;;;;;;;;;;;;;10549491;28;20051;-86
2022/11/24 07:27:16;;;;;;;6.00;2.20;;;;;;;;;;10548683;28;19904;-86
2022/11/24 07:32:17;;;;;;;;;;;;;;;;;;10550681;28;20036;-86
2022/11/24 07:37:18;;;;;;;6.20;2.00;;;;;;;;;;10548934;28;19990;-86
2022/11/24 07:42:19;;;;;;;;;;;;;;;;;;10549888;28;20058;-86
2022/11/24 07:47:20;;;;;;;10.07;2.83;;;;;;;;;;10548575;28;19904;-86
2022/11/24 07:52:22;;;;;;;10.13;2.53;;;;;;;;;;10548102;28;20071;-86
2022/11/24 07:57:23;;;;;;;8.57;2.00;;;;;;;;;;10550221;28;20441;-86
2022/11/24 08:02:24;;;;;;;;;;;;;;;;;;10550148;28;20067;-85
2022/11/24 08:07:25;;;;;;;4.78;1.50;;;;;;;;;;10529828;28;19975;-85
2022/11/24 08:12:26;;;;;;;;;;;;;;;;;;10518568;28;20122;-85
2022/11/24 08:17:28;;;;;;;6.15;2.20;;;;;;;;;;10522960;28;19905;-85
2022/11/24 08:22:29;;;;;;;6.22;2.10;;;;;;;;;;10522045;28;20092;-85
2022/11/24 08:27:30;;;;;;;;;;;;;;;;;;10526713;28;20044;-84
2022/11/24 08:38:27;;;;;;;5.97;2.00;;;;;;;;;;10519635;28;20028;-85
2022/11/24 08:44:00;;;;;;;7.28;2.08;;;;;;;;;;10514523;28;20036;-85
2022/11/24 08:54:45;;;;;;;4.57;2.50;;;;;;;;;;10522289;28;20013;-85
2022/11/24 09:00:21;;;;;;;6.78;2.60;;;;;;;;;;10515003;28;20028;-86
2022/11/24 09:28:44;;;;;;;14.15;8.98;;;;;;;;;;10341692;28;20146;-85
2022/11/24 09:34:14;;;;;;;7.47;3.28;;;;;;;;;;10294666;28;20038;-85
2022/11/24 10:42:52;;;;;;;6.90;1.90;;;;;;;;;;10557869;22;20131;-82
2022/11/24 10:47:53;;;;;;;;;;;;;;;;;;10551758;28;20113;-82
2022/11/24 10:53:00;;;;;;;6.05;2.40;;;;;;;;;;10536566;28;19950;-81
2022/11/24 10:58:15;;;;;;;4.00;1.55;;;;;;;;;;10553268;28;20572;-81
2022/11/24 11:03:19;;;;;;;7.00;1.88;;;;;;;;;;10551925;28;20050;-82
2022/11/24 11:08:30;;;;;;;7.75;3.25;;;;;;;;;;10553992;28;20050;-81
2022/11/24 11:13:31;;;;;;;;;;;;;;;;;;10556567;28;20427;-82
2022/11/24 11:18:33;;;;;;;6.95;2.53;;;;;;;;;;10539032;28;20007;-82
2022/11/24 11:23:35;;;;;;;6.32;1.98;;;;;;;;;;10557976;28;20103;-81
2022/11/24 11:28:36;;;;;;;6.68;2.00;;;;;;;;;;10561852;28;20025;-83
2022/11/24 11:33:37;;;;;;;6.03;2.50;;;;;;;;;;10561924;28;20070;-80
2022/11/24 11:38:38;;;;;;;;;;;;;;;;;;10566914;28;20051;-80
2022/11/24 11:43:40;;;;;;;7.63;3.10;;;;;;;;;;10557378;28;20017;-80
2022/11/24 11:48:45;;;;;;;6.35;2.58;;;;;;;;;;10571848;28;20020;-81
2022/11/24 11:54:05;;;;;;;8.07;3.10;;;;;;;;;;10572755;28;20088;-80
2022/11/24 11:59:15;;;;;;;7.07;2.60;;;;;;;;;;10564824;28;20020;-80
2022/11/24 12:04:43;;;;;;;7.53;3.40;;;;;;;;;;10569742;28;20035;-79
2022/11/24 12:10:16;;;;;;;11.27;2.55;;;;;;;;;;10573063;28;20046;-82
2022/11/24 12:15:25;;;;;;;8.98;2.00;;;;;;;;;;10543386;28;20079;-82
2022/11/24 12:20:36;;;;;;;8.30;3.42;;;;;;;;;;10557120;28;20374;-81
2022/11/24 12:25:40;;;;;;;8.13;3.20;;;;;;;;;;10559376;28;20032;-82
2022/11/24 12:30:59;;;;;;;12.55;6.35;;;;;;;;;;10563162;28;20092;-82
2022/11/24 12:36:05;;;;;;;13.00;3.97;;;;;;;;;;10558791;28;20555;-82
2022/11/24 12:41:18;;;;;;;7.97;2.92;;;;;;;;;;10555617;28;20032;-82
2022/11/24 12:46:20;;;;;;;6.38;2.22;;;;;;;;;;10558201;28;20119;-82
2022/11/24 12:51:42;;;;;;;7.55;2.50;;;;;;;;;;10560660;28;20020;-83
2022/11/24 12:56:58;;;;;;;7.70;2.10;;;;;;;;;;10545435;28;20024;-82
2022/11/24 13:02:19;;;;;;;5.72;2.28;;;;;;;;;;10559643;28;20078;-86
2022/11/24 13:07:23;;;;;;;9.73;3.55;;;;;;;;;;10558132;28;20024;-84
2022/11/24 13:12:25;;;;;;;5.63;2.15;;;;;;;;;;10557527;28;20141;-82
2022/11/24 13:17:25;;;;;;;;;;;;;;;;;;10556692;28;20022;-82
2022/11/24 13:22:35;;;;;;;7.97;2.30;;;;;;;;;;10539901;28;19904;-83
2022/11/24 13:27:41;;;;;;;7.75;2.67;;;;;;;;;;10556667;28;20028;-81
2022/11/24 13:32:42;;;;;;;6.20;2.38;;;;;;;;;;10554589;28;20038;-81
2022/11/24 13:37:44;;;;;;;;;;;;;;;;;;10553201;28;20078;-81
2022/11/24 13:42:59;;;;;;;7.28;2.20;;;;;;;;;;10536017;28;20408;-80
2022/11/24 13:48:00;;;;;;;6.80;2.53;;;;;;;;;;10553584;28;20029;-79
2022/11/24 13:53:08;;;;;;;7.38;2.45;;;;;;;;;;10570504;28;20043;-79
2022/11/24 13:58:14;;;;;;;9.13;3.63;;;;;;;;;;10589987;28;20040;-79
2022/11/24 14:03:19;;;;;;;4.90;2.20;;;;;;;;;;10584269;28;20088;-80
2022/11/24 14:08:28;;;;;;;9.55;3.53;;;;;;;;;;10564128;28;20086;-79
2022/11/24 14:13:31;;;;;;;6.25;2.30;;;;;;;;;;10557602;28;20503;-79
2022/11/24 14:18:36;;;;;;;6.20;2.22;;;;;;;;;;10554545;28;20055;-79
2022/11/24 14:23:40;;;;;;;8.77;2.50;;;;;;;;;;10554192;28;20024;-79
2022/11/24 14:28:41;;;;;;;8.30;2.65;;;;;;;;;;10554970;28;20050;-79
2022/11/24 14:33:42;;;;;;;5.80;2.08;;;;;;;;;;10558314;28;20038;-80
2022/11/24 14:38:43;;;;;;;8.02;2.70;;;;;;;;;;10557965;28;20039;-80
2022/11/24 14:43:44;;;;;;;5.82;2.33;;;;;;;;;;10559476;28;20050;-80
2022/11/24 14:48:47;;;;;;;7.60;2.50;;;;;;;;;;10560498;28;20032;-80
2022/11/24 14:53:50;;;;;;;8.73;2.40;;;;;;;;;;10554620;28;20024;-80
2022/11/24 14:58:51;;;;;;;6.85;2.08;;;;;;;;;;10552291;28;20016;-80
2022/11/24 15:04:12;;;;;;;9.60;2.83;;;;;;;;;;10523414;28;20123;-79
2022/11/24 15:09:32;;;;;;;8.88;2.47;;;;;;;;;;10565062;28;20032;-80
2022/11/24 15:14:38;;;;;;;5.90;2.35;;;;;;;;;;10561139;28;20131;-80
2022/11/24 15:19:39;;;;;;;7.00;2.20;;;;;;;;;;10569717;28;20335;-80
2022/11/24 15:24:50;;;;;;;6.72;2.25;;;;;;;;;;10574519;28;20020;-80
2022/11/24 15:29:51;;;;;;;6.18;2.25;;;;;;;;;;10566460;28;20054;-81
2022/11/24 15:34:52;;;;;;;6.22;2.20;;;;;;;;;;10562650;28;20052;-80
2022/11/24 15:39:53;;;;;;;4.72;2.42;;;;;;;;;;10563110;28;20036;-80
2022/11/24 15:44:54;;;;;;;10.73;3.30;;;;;;;;;;10562976;28;20082;-80
2022/11/24 15:49:55;;;;;;;6.88;2.28;;;;;;;;;;10562293;28;20036;-81
2022/11/24 15:54:58;;;;;;;7.90;3.40;;;;;;;;;;10561131;28;20142;-81
2022/11/24 15:59:59;;;;;;;8.45;4.28;;;;;;;;;;10560718;28;20056;-82
2022/11/24 16:05:00;;;;;;;9.68;4.10;;;;;;;;;;10568113;28;20024;-80
2022/11/24 16:10:01;;;;;;;13.43;3.63;;;;;;;;;;10564625;28;20028;-81
2022/11/24 16:15:02;;;;;;;6.93;3.42;;;;;;;;;;10562503;28;20032;-81
2022/11/24 16:20:03;;;;;;;9.18;4.28;;;;;;;;;;10565191;28;20024;-81
2022/11/24 16:25:05;;;;;;;6.95;2.72;;;;;;;;;;10564377;28;20074;-82
2022/11/24 16:30:07;;;;;;;9.82;4.20;;;;;;;;;;10561050;28;20024;-81
2022/11/24 16:35:08;;;;;;;8.18;3.95;;;;;;;;;;10563217;28;20099;-81
2022/11/24 16:40:09;;;;;;;8.70;3.60;;;;;;;;;;10564853;28;20028;-83
2022/11/24 16:45:11;;;;;;;8.38;4.60;;;;;;;;;;10562929;28;20043;-82
2022/11/24 16:50:12;;;;;;;6.30;3.28;;;;;;;;;;10566099;28;20024;-82
2022/11/24 16:55:14;;;;;;;8.10;3.47;;;;;;;;;;10556929;28;20028;-82
2022/11/24 17:00:15;;;;;;;10.35;5.20;;;;;;;;;;10564420;28;20031;-83
2022/11/24 17:05:16;;;;;;;8.35;3.95;;;;;;;;;;10556396;28;20024;-82
2022/11/24 17:10:17;;;;;;;8.45;3.60;;;;;;;;;;10553882;28;20126;-83
2022/11/24 17:15:18;;;;;;;9.00;4.30;;;;;;;;;;10552977;28;20060;-81
2022/11/24 17:20:20;;;;;;;6.65;3.00;;;;;;;;;;10552350;28;20055;-82
2022/11/24 17:25:21;;;;;;;9.85;4.13;;;;;;;;;;10554551;28;20122;-80
2022/11/24 17:30:25;;;;;;;11.48;4.78;;;;;;;;;;10551257;28;20070;-82
2022/11/24 17:35:26;;;;;;;9.95;5.03;;;;;;;;;;10557124;28;20127;-81
2022/11/24 17:40:27;;;;;;;10.75;5.50;;;;;;;;;;10553842;28;20445;-82
2022/11/24 17:45:29;;;;;;;11.13;5.22;;;;;;;;;;10554607;28;20056;-82
2022/11/24 17:50:30;;;;;;;10.25;4.53;;;;;;;;;;10536915;28;20027;-83
2022/11/24 17:55:31;;;;;;;9.55;4.28;;;;;;;;;;10557068;28;20472;-83
2022/11/24 18:00:32;;;;;;;9.13;4.38;;;;;;;;;;10565361;28;20032;-83
2022/11/24 18:05:36;;;;;;;11.57;4.70;;;;;;;;;;10556564;28;20043;-83
2022/11/24 18:10:38;;;;;;;9.98;4.32;;;;;;;;;;10551261;28;20035;-82
2022/11/24 18:15:39;;;;;;;9.15;4.13;;;;;;;;;;10533550;28;20469;-82
2022/11/24 18:20:40;;;;;;;7.00;4.00;;;;;;;;;;10535617;28;20069;-82
2022/11/24 18:25:41;;;;;;;;;;;;;;;;;;10554939;28;20035;-83
2022/11/24 18:30:42;;;;;;;7.85;3.78;;;;;;;;;;10534485;28;19908;-82
2022/11/24 18:35:44;;;;;;;9.52;3.40;;;;;;;;;;10554210;28;20063;-82
2022/11/24 18:40:45;;;;;;;10.23;3.60;;;;;;;;;;10537528;28;20028;-82
2022/11/24 18:45:47;;;;;;;7.75;3.33;;;;;;;;;;10552761;28;20035;-82
2022/11/24 18:50:52;;;;;;;7.72;3.47;;;;;;;;;;10523787;28;20400;-82
2022/11/24 18:56:05;;;;;;;7.82;3.42;;;;;;;;;;10558004;28;20392;-83
2022/11/24 19:01:08;;;;;;;5.78;2.95;;;;;;;;;;10569813;28;20039;-83
2022/11/24 19:06:12;;;;;;;7.80;3.05;;;;;;;;;;10568142;28;20051;-83
2022/11/24 19:11:21;;;;;;;7.78;2.80;;;;;;;;;;10571109;28;20031;-82
2022/11/24 19:16:23;;;;;;;5.65;2.70;;;;;;;;;;10553940;28;20104;-83
2022/11/24 19:21:24;;;;;;;8.75;3.10;;;;;;;;;;10553461;28;20135;-82
2022/11/24 19:26:31;;;;;;;5.53;2.53;;;;;;;;;;10520245;28;20088;-82
2022/11/24 19:31:32;;;;;;;8.30;3.22;;;;;;;;;;10554982;28;20091;-82
2022/11/24 19:36:33;;;;;;;7.53;3.10;;;;;;;;;;10550098;28;20097;-83
2022/11/24 19:41:36;;;;;;;5.72;2.80;;;;;;;;;;10559429;28;20363;-82
2022/11/24 19:46:38;;;;;;;6.40;2.85;;;;;;;;;;10563775;28;20393;-83
2022/11/24 19:51:43;;;;;;;4.95;2.58;;;;;;;;;;10554082;28;20040;-84
2022/11/24 19:56:57;;;;;;;4.80;2.50;;;;;;;;;;10558178;28;20043;-82
2022/11/24 20:02:01;;;;;;;5.18;2.38;;;;;;;;;;10570250;28;20027;-82
2022/11/24 20:07:07;;;;;;;4.95;2.55;;;;;;;;;;10577251;28;20024;-82
2022/11/24 20:12:13;;;;;;;;;;;;;;;;;;10578467;28;20535;-81
2022/11/24 20:17:14;;;;;;;4.72;2.28;;;;;;;;;;10551663;28;19954;-82
